Time;durP1;ratioP1;P1;durP2;ratioP2;P2;SDS_P1;SDS_P2;PMS_P1;PMS_P2;Temp;Humidity;BMP_temperature;BMP_pressure;BME280_temperature;BME280_humidity;BME280_pressure;Samples;Min_cycle;Max_cycle;Signal;HPM_P1;HPM_P2
2021/11/23 00:00:14;;;;;;;5.43;2.08;;;7.90;93.80;;;;;;5071213;28;20393;-74
2021/11/23 00:02:41;;;;;;;6.63;2.20;;;8.00;93.70;;;;;;5070919;28;20043;-74
2021/11/23 00:05:08;;;;;;;4.72;1.95;;;8.00;93.60;;;;;;5071239;28;20060;-75
2021/11/23 00:07:46;;;;;;;8.13;2.00;;;8.00;93.60;;;;;;5072451;28;20036;-73
2021/11/23 00:10:12;;;;;;;9.98;2.35;;;8.00;93.60;;;;;;5073661;28;20033;-74
2021/11/23 00:12:38;;;;;;;7.05;1.65;;;8.10;93.70;;;;;;5073118;28;20036;-75
2021/11/23 00:15:05;;;;;;;4.20;1.90;;;8.10;93.60;;;;;;5074829;28;20462;-75
2021/11/23 00:17:31;;;;;;;8.90;2.47;;;8.00;93.60;;;;;;5074346;28;20115;-74
2021/11/23 00:19:57;;;;;;;6.82;2.03;;;8.00;93.60;;;;;;5074314;28;20651;-74
2021/11/23 00:22:23;;;;;;;7.53;1.77;;;7.90;93.60;;;;;;5074185;28;20111;-74
2021/11/23 00:24:49;;;;;;;9.32;1.92;;;7.80;93.70;;;;;;5074314;28;20206;-73
2021/11/23 00:27:14;;;;;;;9.70;2.78;;;7.90;93.80;;;;;;5073570;28;20450;-74
2021/11/23 00:29:40;;;;;;;4.10;1.77;;;8.00;93.70;;;;;;5073717;28;20372;-74
2021/11/23 00:32:06;;;;;;;5.82;1.90;;;8.00;93.70;;;;;;5074059;28;20025;-75
2021/11/23 00:34:31;;;;;;;6.75;1.92;;;7.90;93.60;;;;;;5074125;28;20028;-73
2021/11/23 00:36:59;;;;;;;5.03;1.60;;;7.90;93.70;;;;;;5073913;28;20039;-74
2021/11/23 00:39:25;;;;;;;6.90;2.45;;;8.00;93.70;;;;;;5074436;28;20024;-73
2021/11/23 00:41:50;;;;;;;4.88;1.95;;;7.90;93.70;;;;;;5074051;28;20031;-73
2021/11/23 00:44:18;;;;;;;3.75;1.80;;;7.80;93.90;;;;;;5074157;28;20031;-73
2021/11/23 00:46:45;;;;;;;4.65;1.77;;;7.90;93.90;;;;;;5073985;28;20025;-73
2021/11/23 00:49:15;;;;;;;9.30;2.50;;;7.90;93.80;;;;;;5072669;28;20113;-73
2021/11/23 00:51:41;;;;;;;5.57;1.58;;;7.80;93.90;;;;;;5073612;28;20094;-74
2021/11/23 00:54:07;;;;;;;5.57;2.03;;;7.80;93.90;;;;;;5074076;28;20442;-74
2021/11/23 00:56:33;;;;;;;11.35;2.60;;;7.90;93.90;;;;;;5073693;28;20050;-72
2021/11/23 00:58:59;;;;;;;10.07;2.50;;;7.90;93.90;;;;;;5073461;28;20040;-73
2021/11/23 01:01:25;;;;;;;6.20;1.80;;;8.00;93.80;;;;;;5073643;28;20035;-73
2021/11/23 01:03:51;;;;;;;7.85;2.33;;;8.00;93.80;;;;;;5073600;28;20100;-72
2021/11/23 01:06:16;;;;;;;9.52;2.05;;;8.00;93.80;;;;;;5074081;28;20028;-74
2021/11/23 01:08:42;;;;;;;9.02;1.85;;;8.00;93.70;;;;;;5073722;28;20033;-73
2021/11/23 01:11:13;;;;;;;7.75;1.67;;;8.00;93.70;;;;;;5073095;28;20101;-73
2021/11/23 01:13:40;;;;;;;6.95;1.85;;;8.00;93.70;;;;;;5073231;28;20230;-73
2021/11/23 01:16:07;;;;;;;5.63;2.03;;;8.10;93.70;;;;;;5073110;28;20535;-74
2021/11/23 01:18:33;;;;;;;7.25;2.10;;;8.10;93.70;;;;;;5073354;28;20054;-74
2021/11/23 01:21:00;;;;;;;4.68;2.03;;;8.00;93.60;;;;;;5073380;28;20033;-74
2021/11/23 01:23:26;;;;;;;10.35;2.00;;;8.00;93.70;;;;;;5073601;28;20036;-74
2021/11/23 01:25:55;;;;;;;5.82;2.40;;;8.10;93.60;;;;;;5073200;28;20039;-74
2021/11/23 01:28:22;;;;;;;9.10;1.95;;;8.10;93.60;;;;;;5073057;28;20081;-74
2021/11/23 01:30:49;;;;;;;4.75;1.92;;;8.00;93.60;;;;;;5072538;28;20052;-75
2021/11/23 01:33:15;;;;;;;6.88;2.00;;;8.10;93.60;;;;;;5072448;28;20109;-75
2021/11/23 01:35:41;;;;;;;6.80;1.90;;;8.10;93.60;;;;;;5073007;28;20086;-76
2021/11/23 01:38:07;;;;;;;7.25;2.25;;;8.10;93.60;;;;;;5072889;28;20024;-75
2021/11/23 01:40:33;;;;;;;11.30;2.22;;;8.00;93.60;;;;;;5072924;28;20032;-74
2021/11/23 01:43:05;;;;;;;8.15;2.25;;;8.00;93.80;;;;;;5072844;28;20037;-74
2021/11/23 01:45:38;;;;;;;8.27;2.05;;;8.00;93.70;;;;;;5073485;28;20303;-73
2021/11/23 01:48:06;;;;;;;9.13;2.03;;;8.00;93.60;;;;;;5072685;28;20047;-74
2021/11/23 01:50:32;;;;;;;10.88;1.73;;;8.00;93.70;;;;;;5072669;28;20061;-74
2021/11/23 01:53:00;;;;;;;8.25;2.90;;;8.00;93.70;;;;;;5072598;28;20028;-74
2021/11/23 01:55:26;;;;;;;15.07;2.45;;;8.00;93.60;;;;;;5072716;28;20119;-74
2021/11/23 01:57:53;;;;;;;12.98;3.13;;;8.10;93.70;;;;;;5074907;28;20052;-75
2021/11/23 02:00:18;;;;;;;10.73;2.60;;;8.10;93.60;;;;;;5073658;28;20039;-74
2021/11/23 02:02:46;;;;;;;7.55;2.33;;;8.10;93.60;;;;;;5074656;28;20025;-75
2021/11/23 02:05:13;;;;;;;14.23;2.67;;;8.10;93.60;;;;;;5073518;28;20029;-75
2021/11/23 02:07:39;;;;;;;13.05;2.53;;;8.00;93.70;;;;;;5074747;28;20634;-75
2021/11/23 02:10:07;;;;;;;2.80;1.70;;;8.10;93.80;;;;;;5074321;28;20063;-74
2021/11/23 02:12:33;;;;;;;;;;;8.00;93.80;;;;;;5069846;28;20046;-75
2021/11/23 02:14:59;;;;;;;9.68;2.45;;;8.20;93.80;;;;;;5074480;28;19904;-75
2021/11/23 02:17:25;;;;;;;7.95;1.90;;;8.20;93.80;;;;;;5074493;28;20078;-74
2021/11/23 02:19:54;;;;;;;5.82;2.08;;;8.20;93.70;;;;;;5074278;28;20029;-74
2021/11/23 02:22:20;;;;;;;8.35;1.90;;;8.30;93.70;;;;;;5074260;28;20028;-73
2021/11/23 02:24:46;;;;;;;13.95;2.15;;;8.30;93.70;;;;;;5074633;28;20025;-74
2021/11/23 02:27:12;;;;;;;14.27;2.40;;;8.30;93.80;;;;;;5071964;28;20032;-74
2021/11/23 02:29:38;;;;;;;6.35;2.53;;;8.30;93.70;;;;;;5065998;28;20415;-74
2021/11/23 02:32:04;;;;;;;5.40;2.13;;;8.40;93.80;;;;;;5062136;28;20045;-74
2021/11/23 02:34:30;;;;;;;16.67;2.35;;;8.30;93.90;;;;;;5071495;28;20071;-74
2021/11/23 02:36:56;;;;;;;9.27;2.42;;;8.10;94.10;;;;;;5054533;28;20029;-73
2021/11/23 02:39:22;;;;;;;5.45;2.22;;;8.20;94.30;;;;;;5051282;28;20039;-73
2021/11/23 02:41:48;;;;;;;6.65;2.13;;;8.30;94.20;;;;;;5052520;28;20623;-73
2021/11/23 02:44:14;;;;;;;8.20;2.10;;;8.40;94.20;;;;;;5051583;28;20135;-73
2021/11/23 02:46:39;;;;;;;9.43;2.60;;;8.40;94.30;;;;;;5052479;28;20052;-74
2021/11/23 02:49:05;;;;;;;11.23;2.58;;;8.40;94.40;;;;;;5052200;28;20037;-73
2021/11/23 02:51:34;;;;;;;15.48;2.78;;;8.30;94.50;;;;;;5052139;28;20033;-73
2021/11/23 02:54:00;;;;;;;10.45;2.63;;;8.30;94.80;;;;;;5051181;28;20411;-74
2021/11/23 02:56:26;;;;;;;10.27;2.47;;;8.30;94.90;;;;;;5052573;28;20025;-73
2021/11/23 02:58:52;;;;;;;5.45;2.40;;;8.30;95.20;;;;;;5051002;28;20036;-72
2021/11/23 03:01:21;;;;;;;11.48;2.53;;;8.30;95.30;;;;;;5051976;28;20040;-73
2021/11/23 03:03:48;;;;;;;9.43;2.20;;;8.30;95.50;;;;;;5051933;28;20033;-72
2021/11/23 03:06:17;;;;;;;8.98;2.53;;;8.40;95.60;;;;;;5051106;28;20063;-73
2021/11/23 03:08:43;;;;;;;12.10;1.98;;;8.30;95.80;;;;;;5052146;28;20067;-71
2021/11/23 03:11:09;;;;;;;6.63;2.22;;;8.20;96.00;;;;;;5051631;28;20098;-74
2021/11/23 03:13:35;;;;;;;14.50;2.65;;;8.30;96.30;;;;;;5051758;28;20405;-74
2021/11/23 03:16:01;;;;;;;10.60;3.00;;;8.20;96.30;;;;;;5051539;28;20037;-73
2021/11/23 03:18:27;;;;;;;14.40;2.65;;;8.20;96.60;;;;;;5051482;28;20025;-73
2021/11/23 03:20:52;;;;;;;10.18;2.75;;;8.00;96.90;;;;;;5051907;28;20041;-73
2021/11/23 03:23:19;;;;;;;11.00;2.72;;;8.20;97.00;;;;;;5050811;28;20064;-74
2021/11/23 03:25:45;;;;;;;7.18;2.40;;;8.20;97.00;;;;;;5051867;28;20044;-73
2021/11/23 03:28:11;;;;;;;6.38;2.70;;;8.10;97.20;;;;;;5051658;28;20405;-73
2021/11/23 03:30:37;;;;;;;8.60;2.50;;;8.10;97.40;;;;;;5051436;28;20036;-73
2021/11/23 03:33:05;;;;;;;9.10;2.65;;;8.10;97.50;;;;;;5051476;28;20531;-74
2021/11/23 03:35:33;;;;;;;15.30;3.15;;;7.90;97.80;;;;;;5051107;28;20091;-73
2021/11/23 03:37:59;;;;;;;13.45;3.33;;;8.00;98.20;;;;;;5051432;28;20033;-73
2021/11/23 03:40:27;;;;;;;9.95;3.60;;;7.90;98.40;;;;;;5051522;28;20025;-73
2021/11/23 03:42:54;;;;;;;10.90;2.75;;;7.90;98.40;;;;;;5051293;28;20128;-74
2021/11/23 03:45:20;;;;;;;7.35;3.10;;;7.90;98.70;;;;;;5051297;28;20379;-73
2021/11/23 03:47:46;;;;;;;10.13;3.55;;;8.00;98.70;;;;;;5051898;28;20506;-73
2021/11/23 03:50:15;;;;;;;9.85;3.38;;;8.00;98.80;;;;;;5051284;28;20049;-74
2021/11/23 03:52:41;;;;;;;10.18;3.33;;;7.90;99.00;;;;;;5051331;28;20021;-74
2021/11/23 03:55:10;;;;;;;8.52;3.92;;;7.90;99.20;;;;;;5051224;28;20124;-74
2021/11/23 03:57:36;;;;;;;7.57;3.67;;;7.90;99.30;;;;;;5051252;28;20029;-73
2021/11/23 04:00:04;;;;;;;10.85;3.70;;;7.80;99.60;;;;;;5051159;28;20096;-74
2021/11/23 04:02:30;;;;;;;;;;;7.90;99.50;;;;;;5051867;28;20450;-74
2021/11/23 04:04:56;;;;;;;11.40;4.10;;;8.00;99.50;;;;;;5051573;28;19908;-74
2021/11/23 04:07:22;;;;;;;7.35;3.20;;;8.00;99.50;;;;;;5050828;28;20033;-74
2021/11/23 04:09:48;;;;;;;11.38;4.03;;;8.00;99.70;;;;;;5049945;28;20056;-74
2021/11/23 04:12:15;;;;;;;7.38;3.83;;;8.00;99.70;;;;;;5051333;28;20025;-74
2021/11/23 04:14:42;;;;;;;12.65;3.60;;;8.10;99.70;;;;;;5051674;28;20052;-73
2021/11/23 04:17:08;;;;;;;6.03;3.93;;;8.10;99.60;;;;;;5051114;28;20121;-74
2021/11/23 04:19:34;;;;;;;11.90;3.55;;;8.20;99.50;;;;;;5051374;28;20057;-74
2021/11/23 04:22:00;;;;;;;13.65;3.90;;;8.20;99.60;;;;;;5051224;28;20033;-74
2021/11/23 04:24:26;;;;;;;10.45;3.67;;;8.10;99.80;;;;;;5049922;28;20026;-75
2021/11/23 04:26:52;;;;;;;7.68;3.80;;;8.10;99.90;;;;;;5050982;28;20023;-75
2021/11/23 04:29:18;;;;;;;15.55;3.88;;;8.10;99.90;;;;;;5050145;28;20033;-74
2021/11/23 04:31:44;;;;;;;11.40;3.80;;;8.10;99.90;;;;;;5049916;28;20131;-76
2021/11/23 04:34:09;;;;;;;4.80;3.55;;;8.10;99.90;;;;;;5050941;28;20029;-76
2021/11/23 04:36:35;;;;;;;8.70;4.07;;;8.10;99.90;;;;;;5049737;28;20039;-75
2021/11/23 04:39:03;;;;;;;8.27;4.10;;;8.10;99.90;;;;;;5050972;28;20461;-74
2021/11/23 04:41:29;;;;;;;8.65;3.97;;;8.10;99.90;;;;;;5051125;28;20376;-74
2021/11/23 04:43:55;;;;;;;10.45;4.80;;;8.10;99.90;;;;;;5051194;28;20026;-74
2021/11/23 04:46:21;;;;;;;9.52;4.47;;;8.20;99.90;;;;;;5050540;28;20116;-74
2021/11/23 04:48:47;;;;;;;9.70;4.25;;;8.20;99.90;;;;;;5050734;28;20371;-74
2021/11/23 04:51:14;;;;;;;8.98;3.50;;;8.30;99.90;;;;;;5050828;28;20055;-74
2021/11/23 04:53:40;;;;;;;13.18;4.43;;;8.20;99.90;;;;;;5051634;28;20342;-74
2021/11/23 04:56:05;;;;;;;10.10;4.43;;;8.20;99.90;;;;;;5054208;28;20029;-74
2021/11/23 04:58:31;;;;;;;7.25;3.75;;;8.30;99.90;;;;;;5054322;28;20044;-74
2021/11/23 05:00:58;;;;;;;7.82;4.15;;;8.40;99.90;;;;;;5054276;28;20147;-74
2021/11/23 05:03:25;;;;;;;7.03;4.03;;;8.50;99.90;;;;;;5054207;28;20091;-74
2021/11/23 05:05:50;;;;;;;6.30;3.92;;;8.40;99.90;;;;;;5054278;28;20032;-74
2021/11/23 05:08:16;;;;;;;8.43;3.58;;;8.50;99.90;;;;;;5054625;28;20021;-75
2021/11/23 05:10:42;;;;;;;8.68;3.67;;;8.50;99.90;;;;;;5053853;28;20472;-75
2021/11/23 05:13:07;;;;;;;6.57;3.95;;;8.50;99.90;;;;;;5053858;28;20036;-75
2021/11/23 05:15:33;;;;;;;7.13;4.32;;;8.70;99.90;;;;;;5054182;28;20054;-75
2021/11/23 05:17:59;;;;;;;6.28;4.00;;;8.50;99.90;;;;;;5053962;28;20021;-75
2021/11/23 05:20:24;;;;;;;7.50;4.32;;;8.30;99.90;;;;;;5054253;28;20033;-75
2021/11/23 05:22:50;;;;;;;5.65;4.07;;;8.40;99.90;;;;;;5054179;28;20038;-75
2021/11/23 05:25:16;;;;;;;7.95;4.55;;;8.40;99.90;;;;;;5053572;28;20033;-75
2021/11/23 05:27:42;;;;;;;8.55;4.70;;;8.40;99.90;;;;;;5053451;28;20036;-75
2021/11/23 05:30:09;;;;;;;6.32;4.53;;;8.40;99.90;;;;;;5053558;28;20072;-75
2021/11/23 05:32:34;;;;;;;7.15;4.13;;;8.40;99.90;;;;;;5053816;28;20109;-75
2021/11/23 05:35:00;;;;;;;9.18;5.20;;;8.40;99.90;;;;;;5053728;28;20128;-75
2021/11/23 05:37:26;;;;;;;9.32;5.72;;;8.30;99.90;;;;;;5053563;28;20071;-75
2021/11/23 05:39:52;;;;;;;10.75;6.07;;;8.20;99.90;;;;;;5052561;28;20033;-75
2021/11/23 05:42:17;;;;;;;10.20;5.28;;;8.30;99.90;;;;;;5053269;28;20367;-75
2021/11/23 05:44:43;;;;;;;8.35;5.72;;;8.30;99.90;;;;;;5053979;28;20040;-75
2021/11/23 05:47:09;;;;;;;10.88;6.38;;;8.40;99.90;;;;;;5053529;28;20029;-75
2021/11/23 05:49:35;;;;;;;9.98;6.50;;;8.40;99.90;;;;;;5053389;28;20340;-75
2021/11/23 05:52:01;;;;;;;9.32;6.28;;;8.40;99.90;;;;;;5053281;28;20045;-75
2021/11/23 05:54:27;;;;;;;8.13;6.75;;;8.40;99.90;;;;;;5053452;28;20061;-75
2021/11/23 05:56:52;;;;;;;9.30;6.63;;;8.40;99.90;;;;;;5051878;28;20530;-75
2021/11/23 05:59:18;;;;;;;9.00;6.50;;;8.40;99.90;;;;;;5052174;28;20029;-75
2021/11/23 06:01:44;;;;;;;10.25;6.45;;;8.40;99.90;;;;;;5051853;28;20418;-74
2021/11/23 06:04:10;;;;;;;11.63;6.43;;;8.50;99.90;;;;;;5052504;28;20033;-75
2021/11/23 06:06:36;;;;;;;12.40;6.75;;;8.50;99.90;;;;;;5051791;28;20108;-75
2021/11/23 06:09:05;;;;;;;12.45;7.25;;;8.50;99.90;;;;;;5052506;28;20117;-75
2021/11/23 06:11:32;;;;;;;10.57;6.97;;;8.40;99.90;;;;;;5052352;28;20358;-76
2021/11/23 06:13:58;;;;;;;10.63;7.20;;;8.40;99.90;;;;;;5052642;28;20055;-75
2021/11/23 06:16:24;;;;;;;9.70;7.05;;;8.40;99.90;;;;;;5050459;28;20025;-74
2021/11/23 06:18:49;;;;;;;13.85;7.80;;;8.40;99.90;;;;;;5063614;28;20033;-74
2021/11/23 06:21:15;;;;;;;12.73;7.65;;;8.50;99.90;;;;;;5070614;28;20032;-74
2021/11/23 06:23:42;;;;;;;13.20;8.85;;;8.60;99.90;;;;;;5071183;28;20052;-74
2021/11/23 06:26:08;;;;;;;9.90;7.43;;;8.50;99.90;;;;;;5071647;28;20348;-73
2021/11/23 06:28:34;;;;;;;12.88;7.97;;;8.50;99.90;;;;;;5070982;28;20029;-74
2021/11/23 06:30:59;;;;;;;17.17;8.32;;;8.50;99.90;;;;;;5069568;28;20040;-74
2021/11/23 06:33:25;;;;;;;14.60;9.05;;;8.40;99.90;;;;;;5071891;28;20445;-73
2021/11/23 06:35:51;;;;;;;14.57;8.40;;;8.50;99.90;;;;;;5071863;28;20112;-75
2021/11/23 06:38:17;;;;;;;12.05;8.55;;;8.50;99.90;;;;;;5072265;28;20327;-74
2021/11/23 06:40:42;;;;;;;15.05;9.65;;;8.50;99.90;;;;;;5071066;28;20044;-74
2021/11/23 06:43:10;;;;;;;14.60;10.60;;;8.50;99.90;;;;;;5072260;28;20127;-74
2021/11/23 06:45:37;;;;;;;17.17;9.90;;;8.60;99.90;;;;;;5072191;28;20403;-74
2021/11/23 06:48:04;;;;;;;14.83;9.53;;;8.60;99.90;;;;;;5072131;28;20033;-77
2021/11/23 06:50:32;;;;;;;18.65;9.55;;;8.60;99.90;;;;;;5072231;28;20032;-74
2021/11/23 06:53:07;;;;;;;16.73;10.05;;;8.50;99.90;;;;;;5072061;28;20032;-74
2021/11/23 06:55:33;;;;;;;17.08;10.95;;;8.50;99.90;;;;;;5071802;28;20032;-74
2021/11/23 06:57:59;;;;;;;16.85;11.00;;;8.60;99.90;;;;;;5070288;28;20120;-75
2021/11/23 07:00:25;;;;;;;18.50;11.23;;;8.50;99.90;;;;;;5069881;28;20033;-74
2021/11/23 07:02:51;;;;;;;20.20;10.70;;;8.50;99.90;;;;;;5055739;28;20613;-73
2021/11/23 07:05:17;;;;;;;17.27;11.15;;;8.60;99.90;;;;;;5051933;28;20086;-74
2021/11/23 07:07:43;;;;;;;17.02;10.60;;;8.60;99.90;;;;;;5051799;28;20124;-74
2021/11/23 07:10:11;;;;;;;18.40;11.18;;;8.70;99.90;;;;;;5051456;28;20172;-74
2021/11/23 07:12:37;;;;;;;18.23;11.15;;;8.60;99.90;;;;;;5050288;28;20351;-74
2021/11/23 07:15:04;;;;;;;17.33;10.23;;;8.60;99.90;;;;;;5051230;28;20043;-74
2021/11/23 07:17:30;;;;;;;20.75;11.05;;;8.50;99.90;;;;;;5051057;28;20117;-74
2021/11/23 07:19:56;;;;;;;22.17;12.60;;;8.50;99.90;;;;;;5051370;28;20443;-74
2021/11/23 07:22:21;;;;;;;16.08;10.73;;;8.50;99.90;;;;;;5051553;28;20021;-74
2021/11/23 07:24:47;;;;;;;19.63;10.18;;;8.50;99.90;;;;;;5051645;28;20043;-74
2021/11/23 07:27:14;;;;;;;18.38;10.75;;;8.50;99.90;;;;;;5051249;28;20063;-74
2021/11/23 07:29:39;;;;;;;19.30;11.35;;;8.50;99.90;;;;;;5051365;28;20048;-74
2021/11/23 07:32:07;;;;;;;18.48;11.00;;;8.70;99.90;;;;;;5051125;28;20120;-74
2021/11/23 07:34:33;;;;;;;20.55;11.20;;;8.60;99.90;;;;;;5050309;28;20029;-72
2021/11/23 07:36:58;;;;;;;16.85;10.85;;;8.50;99.90;;;;;;5051145;28;20041;-74
2021/11/23 07:39:26;;;;;;;19.88;11.02;;;8.50;99.90;;;;;;5051352;28;20044;-74
2021/11/23 07:41:51;;;;;;;23.33;10.90;;;8.60;99.90;;;;;;5051133;28;20032;-72
2021/11/23 07:44:17;;;;;;;22.27;11.90;;;8.60;99.90;;;;;;5050364;28;20033;-73
2021/11/23 07:46:43;;;;;;;17.13;10.90;;;8.50;99.90;;;;;;5050779;28;20033;-74
2021/11/23 07:49:08;;;;;;;17.15;9.63;;;8.60;99.90;;;;;;5050927;28;20129;-74
2021/11/23 07:51:35;;;;;;;20.70;10.60;;;8.50;99.90;;;;;;5050659;28;20072;-73
2021/11/23 07:54:01;;;;;;;17.90;9.93;;;8.60;99.90;;;;;;5049988;28;20040;-75
2021/11/23 07:56:27;;;;;;;17.77;10.73;;;8.70;99.90;;;;;;5050235;28;20028;-76
2021/11/23 07:58:53;;;;;;;16.38;9.95;;;8.60;99.90;;;;;;5051018;28;20447;-76
2021/11/23 08:01:18;;;;;;;19.23;10.02;;;8.70;99.90;;;;;;5050909;28;20111;-76
2021/11/23 08:03:44;;;;;;;22.63;10.98;;;8.70;99.90;;;;;;5049691;28;20033;-76
2021/11/23 08:06:11;;;;;;;20.75;12.10;;;8.70;99.90;;;;;;5051157;28;20088;-77
2021/11/23 08:08:37;;;;;;;20.20;11.30;;;8.70;99.90;;;;;;5050003;28;20029;-78
2021/11/23 08:11:03;;;;;;;15.48;10.05;;;8.70;99.90;;;;;;5050841;28;20118;-77
2021/11/23 08:13:29;;;;;;;22.00;10.90;;;8.60;99.90;;;;;;5049734;28;20033;-76
2021/11/23 08:15:55;;;;;;;22.80;10.75;;;8.70;99.90;;;;;;5050384;28;20143;-76
2021/11/23 08:18:21;;;;;;;18.48;10.50;;;8.70;99.90;;;;;;5050792;28;20100;-74
2021/11/23 08:20:47;;;;;;;21.10;11.13;;;8.70;99.90;;;;;;5050459;28;20037;-75
2021/11/23 08:23:13;;;;;;;21.77;10.73;;;8.70;99.90;;;;;;5050416;28;20040;-75
2021/11/23 08:25:39;;;;;;;25.17;11.15;;;8.80;99.90;;;;;;5049527;28;20037;-74
2021/11/23 08:28:06;;;;;;;23.73;12.45;;;8.70;99.90;;;;;;5050523;28;20462;-75
2021/11/23 08:30:32;;;;;;;20.48;10.70;;;8.80;99.90;;;;;;5053196;28;20427;-73
2021/11/23 08:32:57;;;;;;;20.92;10.65;;;8.80;99.90;;;;;;5054337;28;20033;-74
2021/11/23 08:35:23;;;;;;;23.98;11.23;;;8.80;99.90;;;;;;5053500;28;20032;-72
2021/11/23 08:37:49;;;;;;;16.33;9.80;;;8.80;99.90;;;;;;5054356;28;20204;-73
2021/11/23 08:40:15;;;;;;;27.23;11.15;;;8.90;99.90;;;;;;5053895;28;20451;-72
2021/11/23 08:42:41;;;;;;;19.52;11.27;;;8.80;99.90;;;;;;5053946;28;20464;-72
2021/11/23 08:45:11;;;;;;;19.95;11.30;;;8.80;99.90;;;;;;5053736;28;20127;-72
2021/11/23 08:47:37;;;;;;;21.63;10.70;;;8.70;99.90;;;;;;5052936;28;20331;-72
2021/11/23 08:50:07;;;;;;;27.73;12.05;;;8.80;99.90;;;;;;5052351;28;20040;-73
2021/11/23 08:52:33;;;;;;;24.73;12.02;;;8.90;99.90;;;;;;5053920;28;20055;-72
2021/11/23 08:54:59;;;;;;;22.92;11.63;;;8.80;99.90;;;;;;5053602;28;20082;-73
2021/11/23 08:57:25;;;;;;;25.13;12.05;;;8.80;99.90;;;;;;5053761;28;20029;-72
2021/11/23 08:59:54;;;;;;;20.88;11.10;;;8.70;99.90;;;;;;5053512;28;20096;-72
2021/11/23 09:02:19;;;;;;;18.80;11.77;;;8.70;99.90;;;;;;5053680;28;20013;-71
2021/11/23 09:04:45;;;;;;;21.63;12.05;;;8.70;99.90;;;;;;5053655;28;20032;-72
2021/11/23 09:07:15;;;;;;;26.40;12.13;;;8.80;99.90;;;;;;5053498;28;20029;-72
2021/11/23 09:09:43;;;;;;;21.38;11.38;;;8.90;99.90;;;;;;5053459;28;20502;-72
2021/11/23 09:12:10;;;;;;;21.55;12.02;;;8.90;99.90;;;;;;5053447;28;20037;-72
2021/11/23 09:14:37;;;;;;;24.63;12.68;;;9.00;99.90;;;;;;5053917;28;20062;-73
2021/11/23 09:17:05;;;;;;;21.98;12.43;;;9.00;99.90;;;;;;5053366;28;20490;-72
2021/11/23 09:19:32;;;;;;;21.67;11.90;;;9.00;99.90;;;;;;5052176;28;20063;-72
2021/11/23 09:21:58;;;;;;;24.42;12.55;;;9.00;99.90;;;;;;5053187;28;20037;-70
2021/11/23 09:24:23;;;;;;;22.63;12.18;;;9.00;99.90;;;;;;5053351;28;20528;-71
2021/11/23 09:26:51;;;;;;;22.45;11.60;;;9.00;99.90;;;;;;5051988;28;20355;-72
2021/11/23 09:29:18;;;;;;;19.92;9.98;;;9.10;99.90;;;;;;5053345;28;20021;-72
2021/11/23 09:31:44;;;;;;;20.08;10.63;;;9.00;99.90;;;;;;5053095;28;20033;-73
2021/11/23 09:34:11;;;;;;;17.13;11.13;;;9.10;99.90;;;;;;5053000;28;20082;-72
2021/11/23 09:36:38;;;;;;;22.75;11.77;;;9.10;99.90;;;;;;5052958;28;20049;-74
2021/11/23 09:39:04;;;;;;;19.15;10.38;;;9.10;99.90;;;;;;5052840;28;20497;-72
2021/11/23 09:41:33;;;;;;;22.33;12.07;;;9.00;99.90;;;;;;5052952;28;20029;-73
2021/11/23 09:43:59;;;;;;;23.17;12.90;;;9.10;99.90;;;;;;5052830;28;20050;-72
2021/11/23 09:46:25;;;;;;;22.42;11.90;;;9.10;99.90;;;;;;5052828;28;20255;-71
2021/11/23 09:48:50;;;;;;;25.40;11.73;;;9.10;99.90;;;;;;5052773;28;20103;-71
2021/11/23 09:51:23;;;;;;;22.77;11.57;;;9.10;99.90;;;;;;5052631;28;20075;-72
2021/11/23 09:53:49;;;;;;;24.83;12.35;;;9.00;99.90;;;;;;5052700;28;20478;-74
2021/11/23 09:56:15;;;;;;;20.55;11.98;;;9.10;99.90;;;;;;5052776;28;20024;-72
2021/11/23 09:58:41;;;;;;;24.30;12.70;;;9.20;99.90;;;;;;5052487;28;20040;-72
2021/11/23 10:01:09;;;;;;;21.80;12.90;;;9.10;99.90;;;;;;5052428;28;20116;-72
2021/11/23 10:03:36;;;;;;;24.80;12.48;;;9.10;99.90;;;;;;5052124;28;20110;-72
2021/11/23 10:06:06;;;;;;;22.58;12.88;;;9.10;99.90;;;;;;5052596;28;20606;-73
2021/11/23 10:08:32;;;;;;;27.38;12.68;;;9.30;99.90;;;;;;5052791;28;20036;-72
2021/11/23 10:10:58;;;;;;;21.83;11.73;;;9.30;99.90;;;;;;5052468;28;20033;-72
2021/11/23 10:13:44;;;;;;;20.90;10.88;;;9.20;99.90;;;;;;5052199;28;20116;-72
2021/11/23 10:16:11;;;;;;;18.90;10.98;;;9.30;99.90;;;;;;5052313;28;20110;-73
2021/11/23 10:18:37;;;;;;;14.65;9.65;;;9.40;99.90;;;;;;5052237;28;20036;-73
2021/11/23 10:21:05;;;;;;;17.95;10.45;;;9.30;99.90;;;;;;5052128;28;20645;-74
2021/11/23 10:23:42;;;;;;;16.55;9.80;;;9.50;99.90;;;;;;5052523;28;20025;-72
2021/11/23 10:26:14;;;;;;;16.13;9.68;;;9.50;99.90;;;;;;5051926;28;20052;-72
2021/11/23 10:28:49;;;;;;;13.60;8.73;;;9.50;99.90;;;;;;5052036;28;20056;-74
2021/11/23 10:31:16;;;;;;;17.85;9.73;;;9.40;99.90;;;;;;5051554;28;20424;-72
2021/11/23 10:33:43;;;;;;;19.10;9.45;;;9.50;99.90;;;;;;5052101;28;20017;-72
2021/11/23 10:36:15;;;;;;;19.35;9.55;;;9.40;99.90;;;;;;5051936;28;20115;-72
2021/11/23 10:38:41;;;;;;;14.30;8.75;;;9.50;99.90;;;;;;5052228;28;20028;-72
2021/11/23 10:41:11;;;;;;;18.15;9.93;;;9.40;99.90;;;;;;5051893;28;20029;-73
2021/11/23 10:43:39;;;;;;;17.52;9.50;;;9.50;99.90;;;;;;5051757;28;20125;-72
2021/11/23 10:46:17;;;;;;;17.88;9.70;;;9.50;99.90;;;;;;5051651;28;20033;-72
2021/11/23 10:48:55;;;;;;;23.00;9.88;;;9.60;99.90;;;;;;5051577;28;20044;-72
2021/11/23 10:51:22;;;;;;;18.92;9.73;;;9.50;99.90;;;;;;5050834;28;20037;-72
2021/11/23 10:53:48;;;;;;;16.77;9.43;;;9.40;99.90;;;;;;5051436;28;20040;-72
2021/11/23 10:56:19;;;;;;;16.88;10.25;;;9.40;99.90;;;;;;5051843;28;20017;-73
2021/11/23 10:58:47;;;;;;;19.08;11.27;;;9.50;99.90;;;;;;5051376;28;20033;-73
2021/11/23 11:01:15;;;;;;;19.65;8.63;;;9.30;99.90;;;;;;5051380;28;20557;-73
2021/11/23 11:03:42;;;;;;;17.45;9.98;;;9.40;99.90;;;;;;5051465;28;20426;-74
2021/11/23 11:06:09;;;;;;;19.20;9.18;;;9.60;99.90;;;;;;5051441;28;20112;-72
2021/11/23 11:08:42;;;;;;;21.00;10.93;;;9.70;99.90;;;;;;5051821;28;20024;-73
2021/11/23 11:11:15;;;;;;;16.67;9.23;;;9.60;99.90;;;;;;5050149;28;20087;-76
2021/11/23 11:13:42;;;;;;;15.52;9.05;;;9.60;99.90;;;;;;5051725;28;20032;-75
2021/11/23 11:16:10;;;;;;;17.40;8.90;;;9.60;99.90;;;;;;5049939;28;20029;-73
2021/11/23 11:18:36;;;;;;;13.13;7.88;;;9.50;99.90;;;;;;5051141;28;20029;-74
2021/11/23 11:21:04;;;;;;;16.80;8.95;;;9.60;99.90;;;;;;5051139;28;20025;-73
2021/11/23 11:23:42;;;;;;;15.40;8.60;;;9.60;99.90;;;;;;5051682;28;20103;-74
2021/11/23 11:26:30;;;;;;;15.27;7.85;;;9.70;99.90;;;;;;5051303;28;20374;-73
2021/11/23 11:28:58;;;;;;;13.07;7.68;;;9.70;99.90;;;;;;5051264;28;20064;-74
2021/11/23 11:31:46;;;;;;;15.25;6.75;;;9.60;99.90;;;;;;5050591;28;20039;-74
2021/11/23 11:34:21;;;;;;;13.70;7.07;;;9.50;99.90;;;;;;5050986;28;20037;-74
2021/11/23 11:36:49;;;;;;;14.63;7.55;;;9.50;99.90;;;;;;5049810;28;20029;-74
2021/11/23 11:39:37;;;;;;;18.00;8.82;;;9.60;99.90;;;;;;5051050;28;20039;-76
2021/11/23 11:42:06;;;;;;;;;;;9.60;99.90;;;;;;5050302;28;20592;-75
2021/11/23 11:44:37;;;;;;;14.13;6.60;;;9.60;99.90;;;;;;5050983;28;19905;-76
2021/11/23 11:47:06;;;;;;;16.30;8.80;;;9.60;99.90;;;;;;5049624;28;20510;-75
2021/11/23 11:49:51;;;;;;;15.90;7.20;;;9.50;99.90;;;;;;5050577;28;20076;-76
2021/11/23 11:52:18;;;;;;;15.65;7.65;;;9.50;99.90;;;;;;5050593;28;20529;-76
2021/11/23 11:54:45;;;;;;;17.42;8.27;;;9.60;99.90;;;;;;5050678;28;20461;-75
2021/11/23 11:57:28;;;;;;;14.35;7.45;;;9.80;99.90;;;;;;5049646;28;20036;-75
2021/11/23 11:59:54;;;;;;;16.80;8.18;;;9.70;99.90;;;;;;5049300;28;20438;-74
2021/11/23 12:02:22;;;;;;;18.48;7.63;;;9.70;99.90;;;;;;5050909;28;20118;-76
2021/11/23 12:04:58;;;;;;;13.45;7.38;;;9.70;99.90;;;;;;5054716;28;20087;-76
2021/11/23 12:07:37;;;;;;;17.55;8.75;;;9.60;99.90;;;;;;5054652;28;20031;-75
2021/11/23 12:10:15;;;;;;;16.50;8.95;;;9.80;99.90;;;;;;5054542;28;20040;-74
2021/11/23 12:12:57;;;;;;;14.55;7.95;;;9.90;99.90;;;;;;5054598;28;20053;-75
2021/11/23 12:15:48;;;;;;;15.95;8.05;;;9.90;99.90;;;;;;5054662;28;20021;-75
2021/11/23 12:18:45;;;;;;;21.50;8.93;;;9.90;99.90;;;;;;5053372;28;20049;-77
2021/11/23 12:21:16;;;;;;;22.35;8.23;;;10.00;99.90;;;;;;5054695;28;20025;-77
2021/11/23 12:23:52;;;;;;;16.73;8.63;;;10.00;99.90;;;;;;5054622;28;20025;-74
2021/11/23 12:26:20;;;;;;;12.68;7.93;;;10.10;99.90;;;;;;5054502;28;20043;-76
2021/11/23 12:29:01;;;;;;;16.77;8.13;;;10.20;99.90;;;;;;5054248;28;20076;-72
2021/11/23 12:31:35;;;;;;;18.02;9.15;;;9.90;99.90;;;;;;5052770;28;20351;-74
2021/11/23 12:34:05;;;;;;;21.00;9.13;;;10.00;99.90;;;;;;5054095;28;20124;-74
2021/11/23 12:36:37;;;;;;;21.42;8.60;;;10.10;99.90;;;;;;5054145;28;20419;-73
2021/11/23 12:39:13;;;;;;;27.98;14.45;;;10.10;99.90;;;;;;5054139;28;20035;-74
2021/11/23 12:41:40;;;;;;;33.28;16.13;;;10.10;99.90;;;;;;5054353;28;20032;-74
2021/11/23 12:44:23;;;;;;;22.20;9.98;;;10.20;99.90;;;;;;5052707;28;20067;-73
2021/11/23 12:46:59;;;;;;;14.02;8.30;;;10.30;99.90;;;;;;5052762;28;20056;-74
2021/11/23 12:49:33;;;;;;;19.10;10.10;;;10.20;99.90;;;;;;5053786;28;20031;-75